Time;durP1;ratioP1;P1;durP2;ratioP2;P2;SDS_P1;SDS_P2;PMS_P1;PMS_P2;Temp;Humidity;BMP_temperature;BMP_pressure;BME280_temperature;BME280_humidity;BME280_pressure;Samples;Min_cycle;Max_cycle;Signal;HPM_P1;HPM_P2
2023/09/27 00:00:13;;;;;;;0.90;0.90;;;11.30;99.90;;;;;;5033330;28;20658;-62
2023/09/27 00:02:39;;;;;;;1.40;0.80;;;11.30;99.90;;;;;;5033315;28;20209;-62
2023/09/27 00:05:06;;;;;;;1.00;1.00;;;11.50;99.90;;;;;;5033432;28;20938;-63
2023/09/27 00:07:36;;;;;;;1.60;1.50;;;11.60;99.90;;;;;;5032656;28;20441;-62
2023/09/27 00:10:03;;;;;;;1.15;0.82;;;11.60;99.90;;;;;;5033152;28;20402;-63
2023/09/27 00:12:29;;;;;;;1.60;1.40;;;11.50;99.90;;;;;;5033127;28;20190;-63
2023/09/27 00:14:56;;;;;;;1.13;0.83;;;11.40;99.90;;;;;;5033014;28;20171;-62
2023/09/27 00:17:22;;;;;;;1.90;1.80;;;11.40;99.90;;;;;;5033080;28;20199;-63
2023/09/27 00:19:48;;;;;;;0.80;0.80;;;11.30;99.90;;;;;;5032857;28;20585;-63
2023/09/27 00:22:14;;;;;;;2.20;2.00;;;11.30;99.90;;;;;;5032880;28;20515;-63
2023/09/27 00:24:39;;;;;;;0.83;0.83;;;11.30;99.90;;;;;;5032862;28;20182;-63
2023/09/27 00:27:05;;;;;;;1.50;1.00;;;11.40;99.90;;;;;;5032508;28;20190;-62
2023/09/27 00:29:31;;;;;;;1.27;1.17;;;11.30;99.90;;;;;;5032871;28;20583;-62
2023/09/27 00:31:57;;;;;;;1.63;1.63;;;11.30;99.90;;;;;;5032679;28;20409;-62
2023/09/27 00:34:23;;;;;;;0.93;0.93;;;11.10;99.90;;;;;;5032619;28;20175;-62
2023/09/27 00:36:49;;;;;;;1.27;1.27;;;11.00;99.90;;;;;;5032207;28;20492;-63
2023/09/27 00:39:15;;;;;;;0.90;0.70;;;11.10;99.90;;;;;;5032583;28;20509;-62
2023/09/27 00:41:40;;;;;;;1.60;1.17;;;11.20;99.90;;;;;;5032503;28;20206;-63
2023/09/27 00:44:06;;;;;;;3.63;2.20;;;11.20;99.90;;;;;;5032496;28;20406;-62
2023/09/27 00:46:33;;;;;;;1.73;1.13;;;11.20;99.90;;;;;;5032945;28;20174;-63
2023/09/27 00:48:58;;;;;;;1.80;1.77;;;11.10;99.90;;;;;;5032647;28;20229;-63
2023/09/27 00:51:25;;;;;;;1.00;1.00;;;11.10;99.90;;;;;;5032427;28;20171;-63
2023/09/27 00:53:52;;;;;;;5.32;2.20;;;11.10;99.90;;;;;;5032363;28;20253;-62
2023/09/27 00:56:18;;;;;;;1.58;1.48;;;11.10;99.90;;;;;;5031948;28;20174;-63
2023/09/27 00:58:44;;;;;;;0.90;0.90;;;11.10;99.90;;;;;;5032561;28;20191;-63
2023/09/27 01:01:12;;;;;;;1.60;1.27;;;11.10;99.90;;;;;;5032125;28;20499;-62
2023/09/27 01:03:38;;;;;;;1.93;1.30;;;11.10;99.90;;;;;;5032007;28;20655;-63
2023/09/27 01:06:04;;;;;;;0.97;0.97;;;11.20;99.90;;;;;;5031814;28;20406;-63
2023/09/27 01:08:30;;;;;;;1.67;1.40;;;11.10;99.90;;;;;;5031977;28;20244;-64
2023/09/27 01:10:55;;;;;;;1.50;1.20;;;11.20;99.90;;;;;;5032059;28;20799;-62
2023/09/27 01:13:21;;;;;;;1.27;1.13;;;11.20;99.90;;;;;;5032075;28;20221;-62
2023/09/27 01:15:47;;;;;;;1.37;1.27;;;11.20;99.90;;;;;;5031578;28;20707;-63
2023/09/27 01:18:13;;;;;;;2.22;2.03;;;11.20;99.90;;;;;;5031785;28;20838;-62
2023/09/27 01:20:39;;;;;;;1.97;1.73;;;11.20;99.90;;;;;;5031822;28;20210;-62
2023/09/27 01:23:05;;;;;;;1.33;1.23;;;11.20;99.90;;;;;;5031732;28;20190;-63
2023/09/27 01:25:36;;;;;;;2.27;2.07;;;11.30;99.90;;;;;;5031674;28;20244;-63
2023/09/27 01:28:03;;;;;;;1.90;1.00;;;11.40;99.90;;;;;;5031611;28;20475;-62
2023/09/27 01:30:32;;;;;;;2.50;2.30;;;11.50;99.90;;;;;;5031629;28;20488;-62
2023/09/27 01:33:05;;;;;;;0.60;0.60;;;11.50;99.90;;;;;;5031684;28;20425;-62
2023/09/27 01:35:33;;;;;;;1.23;1.23;;;11.40;99.90;;;;;;5031755;28;20410;-62
2023/09/27 01:37:58;;;;;;;1.17;1.00;;;11.30;99.90;;;;;;5031483;28;20433;-63
2023/09/27 01:40:29;;;;;;;1.00;1.00;;;11.20;99.90;;;;;;5031421;28;20811;-64
2023/09/27 01:42:55;;;;;;;3.67;1.60;;;11.20;99.90;;;;;;5031618;28;20560;-62
2023/09/27 01:45:22;;;;;;;2.03;1.90;;;11.30;99.90;;;;;;5031359;28;20414;-63
2023/09/27 01:47:47;;;;;;;1.57;1.47;;;11.40;99.90;;;;;;5031299;28;20429;-62
2023/09/27 01:50:13;;;;;;;1.10;1.10;;;11.40;99.90;;;;;;5031560;28;20410;-63
2023/09/27 01:52:39;;;;;;;1.63;1.10;;;11.40;99.90;;;;;;5031459;28;20181;-63
2023/09/27 01:55:05;;;;;;;1.87;1.87;;;11.30;99.90;;;;;;5031411;28;20163;-63
2023/09/27 01:57:30;;;;;;;0.90;0.90;;;11.30;99.90;;;;;;5031119;28;20619;-64
2023/09/27 01:59:56;;;;;;;1.10;1.00;;;11.30;99.90;;;;;;5031349;28;20405;-62
2023/09/27 02:02:22;;;;;;;1.57;1.40;;;11.20;99.90;;;;;;5031597;28;20297;-63
2023/09/27 02:04:47;;;;;;;1.97;1.87;;;11.20;99.90;;;;;;5031538;28;20199;-63
2023/09/27 02:07:13;;;;;;;0.53;0.53;;;11.20;99.90;;;;;;5030969;28;20207;-62
2023/09/27 02:09:38;;;;;;;3.00;1.63;;;11.30;99.90;;;;;;5031922;28;20178;-63
2023/09/27 02:12:04;;;;;;;2.30;1.70;;;11.30;99.90;;;;;;5031359;28;20171;-63
2023/09/27 02:14:30;;;;;;;2.13;1.70;;;11.20;99.90;;;;;;5031538;28;20171;-63
2023/09/27 02:16:55;;;;;;;1.30;1.20;;;11.20;99.90;;;;;;5034976;28;20167;-63
2023/09/27 02:19:21;;;;;;;0.70;0.70;;;11.30;99.90;;;;;;5035203;28;20175;-63
2023/09/27 02:21:47;;;;;;;0.63;0.63;;;11.40;99.90;;;;;;5035168;28;20680;-63
2023/09/27 02:24:12;;;;;;;0.90;0.87;;;11.40;99.90;;;;;;5035084;28;20189;-62
2023/09/27 02:26:38;;;;;;;1.80;1.70;;;11.40;99.90;;;;;;5034710;28;20171;-63
2023/09/27 02:29:07;;;;;;;1.23;0.80;;;11.30;99.90;;;;;;5034892;28;20650;-62
2023/09/27 02:31:32;;;;;;;1.13;1.02;;;11.10;99.90;;;;;;5035004;28;20168;-62
2023/09/27 02:33:58;;;;;;;1.20;1.07;;;11.10;99.90;;;;;;5035146;28;20191;-62
2023/09/27 02:36:24;;;;;;;1.77;1.17;;;11.10;99.90;;;;;;5034654;28;20182;-62
2023/09/27 02:38:49;;;;;;;1.43;1.20;;;11.00;99.90;;;;;;5034744;28;20553;-63
2023/09/27 02:41:15;;;;;;;4.10;0.90;;;11.00;99.90;;;;;;5034498;28;20225;-63
2023/09/27 02:43:41;;;;;;;1.53;1.33;;;10.90;99.90;;;;;;5034709;28;20612;-62
2023/09/27 02:46:07;;;;;;;0.83;0.70;;;10.90;99.90;;;;;;5034651;28;20175;-62
2023/09/27 02:48:33;;;;;;;0.70;0.70;;;11.00;99.90;;;;;;5033491;28;20222;-62
2023/09/27 02:50:59;;;;;;;1.67;1.10;;;10.90;99.90;;;;;;5034564;28;20186;-62
2023/09/27 02:53:25;;;;;;;4.00;0.83;;;10.80;99.90;;;;;;5034664;28;20189;-62
2023/09/27 02:55:50;;;;;;;0.93;0.80;;;10.70;99.90;;;;;;5034206;28;20413;-62
2023/09/27 02:58:16;;;;;;;0.60;0.60;;;10.60;99.90;;;;;;5034544;28;20191;-62
2023/09/27 03:00:42;;;;;;;3.13;2.17;;;10.60;99.90;;;;;;5034536;28;20261;-63
2023/09/27 03:03:13;;;;;;;3.92;0.73;;;10.70;99.90;;;;;;5016660;28;20186;-62
2023/09/27 03:05:39;;;;;;;1.15;1.15;;;10.80;99.90;;;;;;5033976;28;20206;-64
2023/09/27 03:08:05;;;;;;;1.35;1.35;;;10.80;99.90;;;;;;5034143;28;20601;-63
2023/09/27 03:10:31;;;;;;;1.47;1.37;;;10.80;99.90;;;;;;5034779;28;20178;-62
2023/09/27 03:12:58;;;;;;;0.73;0.70;;;10.60;99.90;;;;;;5034397;28;20175;-62
2023/09/27 03:15:24;;;;;;;1.88;1.45;;;10.50;99.90;;;;;;5034143;28;20166;-62
2023/09/27 03:17:50;;;;;;;1.70;1.60;;;10.50;99.90;;;;;;5033898;28;20194;-62
2023/09/27 03:20:16;;;;;;;0.50;0.50;;;10.40;99.90;;;;;;5034058;28;20416;-63
2023/09/27 03:22:46;;;;;;;1.70;1.00;;;10.30;99.90;;;;;;5034072;28;20197;-63
2023/09/27 03:25:12;;;;;;;0.50;0.50;;;10.40;99.90;;;;;;5033670;28;20766;-62
2023/09/27 03:27:38;;;;;;;0.80;0.60;;;10.30;99.90;;;;;;5033355;28;20270;-63
2023/09/27 03:30:07;;;;;;;1.85;1.75;;;10.20;99.90;;;;;;5034438;28;20779;-63
2023/09/27 03:32:33;;;;;;;1.00;0.98;;;10.10;99.90;;;;;;5033845;28;20189;-63
2023/09/27 03:34:59;;;;;;;0.80;0.80;;;10.10;99.90;;;;;;5033805;28;20648;-63
2023/09/27 03:37:25;;;;;;;0.70;0.70;;;10.10;99.90;;;;;;5033387;28;20195;-62
2023/09/27 03:39:52;;;;;;;0.70;0.70;;;10.20;99.90;;;;;;5033692;28;20559;-62
2023/09/27 03:42:20;;;;;;;1.00;0.90;;;10.10;99.90;;;;;;5033586;28;20706;-63
2023/09/27 03:44:47;;;;;;;2.15;0.93;;;10.10;99.90;;;;;;5033760;28;20183;-62
2023/09/27 03:47:12;;;;;;;1.50;1.38;;;10.20;99.90;;;;;;5033276;28;20266;-63
2023/09/27 03:49:40;;;;;;;0.67;0.67;;;10.20;99.90;;;;;;5033613;28;20602;-63
2023/09/27 03:52:07;;;;;;;1.58;1.33;;;10.20;99.90;;;;;;5032941;28;20209;-63
2023/09/27 03:54:32;;;;;;;1.27;0.80;;;10.10;99.90;;;;;;5033496;28;20182;-63
2023/09/27 03:56:58;;;;;;;0.50;0.50;;;10.10;99.90;;;;;;5032853;28;20230;-64
2023/09/27 03:59:24;;;;;;;0.63;0.60;;;10.10;99.90;;;;;;5033405;28;20250;-63
2023/09/27 04:01:50;;;;;;;1.03;0.73;;;10.00;99.90;;;;;;5033364;28;20677;-62
2023/09/27 04:04:15;;;;;;;1.03;1.03;;;10.00;99.90;;;;;;5033317;28;20632;-63
2023/09/27 04:06:41;;;;;;;1.10;0.97;;;9.90;99.90;;;;;;5032838;28;20171;-63
2023/09/27 04:09:08;;;;;;;0.70;0.70;;;10.00;99.90;;;;;;5033027;28;20604;-62
2023/09/27 04:11:33;;;;;;;1.13;1.05;;;9.90;99.90;;;;;;5033169;28;20261;-63
2023/09/27 04:13:59;;;;;;;1.70;1.20;;;9.80;99.90;;;;;;5033167;28;20175;-62
2023/09/27 04:16:28;;;;;;;5.60;1.53;;;9.70;99.90;;;;;;5032831;28;20201;-62
2023/09/27 04:18:54;;;;;;;0.90;0.80;;;9.70;99.90;;;;;;5032907;28;20210;-62
2023/09/27 04:21:19;;;;;;;3.15;1.63;;;9.80;99.90;;;;;;5032867;28;20739;-62
2023/09/27 04:23:56;;;;;;;0.37;0.37;;;9.90;99.90;;;;;;5033007;28;20254;-62
2023/09/27 04:26:23;;;;;;;0.52;0.50;;;9.90;99.90;;;;;;5032642;28;20610;-62
2023/09/27 04:28:50;;;;;;;0.90;0.90;;;9.90;99.90;;;;;;5032816;28;20199;-62
2023/09/27 04:31:16;;;;;;;2.78;1.23;;;9.90;99.90;;;;;;5032825;28;20182;-62
2023/09/27 04:33:44;;;;;;;0.63;0.63;;;9.90;99.90;;;;;;5032675;28;20603;-63
2023/09/27 04:36:15;;;;;;;1.27;1.17;;;9.70;99.90;;;;;;5032315;28;20460;-62
2023/09/27 04:38:42;;;;;;;0.40;0.40;;;9.50;99.90;;;;;;5031836;28;20585;-62
2023/09/27 04:41:08;;;;;;;0.73;0.73;;;9.50;99.90;;;;;;5032573;28;20229;-62
2023/09/27 04:43:34;;;;;;;5.32;1.50;;;9.40;99.90;;;;;;5033026;28;20207;-63
2023/09/27 04:46:00;;;;;;;2.17;1.20;;;9.40;99.90;;;;;;5032196;28;20218;-62
2023/09/27 04:48:25;;;;;;;1.17;1.07;;;9.40;99.90;;;;;;5032264;28;20195;-62
2023/09/27 04:50:51;;;;;;;1.27;1.20;;;9.50;99.90;;;;;;5032496;28;20413;-62
2023/09/27 04:53:17;;;;;;;1.77;1.17;;;9.50;99.90;;;;;;5032641;28;20187;-63
2023/09/27 04:55:42;;;;;;;3.77;1.60;;;9.60;99.90;;;;;;5032145;28;20624;-63
2023/09/27 04:58:09;;;;;;;0.40;0.40;;;9.50;99.90;;;;;;5032186;28;20660;-63
2023/09/27 05:00:34;;;;;;;0.67;0.67;;;9.40;99.90;;;;;;5032127;28;20227;-63
2023/09/27 05:03:00;;;;;;;1.17;1.03;;;9.30;99.90;;;;;;5032192;28;20182;-61
2023/09/27 05:05:26;;;;;;;0.97;0.70;;;9.40;99.90;;;;;;5032148;28;20173;-61
2023/09/27 05:07:52;;;;;;;0.40;0.40;;;9.40;99.90;;;;;;5031778;28;20453;-63
2023/09/27 05:10:18;;;;;;;1.93;0.77;;;9.40;99.90;;;;;;5032076;28;20923;-62
2023/09/27 05:12:43;;;;;;;0.60;0.60;;;9.40;99.90;;;;;;5032027;28;20185;-63
2023/09/27 05:15:09;;;;;;;0.60;0.60;;;9.30;99.90;;;;;;5031714;28;20174;-63
2023/09/27 05:17:35;;;;;;;0.52;0.52;;;9.30;99.90;;;;;;5031485;28;20569;-63
2023/09/27 05:20:06;;;;;;;2.10;1.37;;;9.40;99.90;;;;;;5031865;28;20278;-62
2023/09/27 05:22:31;;;;;;;1.98;1.73;;;9.40;99.90;;;;;;5031377;28;20289;-63
2023/09/27 05:24:57;;;;;;;0.83;0.83;;;9.50;99.90;;;;;;5031660;28;20269;-64
2023/09/27 05:27:23;;;;;;;0.63;0.60;;;9.50;99.90;;;;;;5031422;28;20207;-62
2023/09/27 05:29:49;;;;;;;0.85;0.85;;;9.60;99.90;;;;;;5031494;28;20181;-62
2023/09/27 05:32:14;;;;;;;0.53;0.53;;;9.70;99.90;;;;;;5031704;28;20181;-62
2023/09/27 05:34:40;;;;;;;0.40;0.40;;;9.60;99.90;;;;;;5031903;28;20201;-62
2023/09/27 05:37:06;;;;;;;0.67;0.67;;;9.50;99.90;;;;;;5030196;28;20206;-62
2023/09/27 05:39:31;;;;;;;0.80;0.80;;;9.40;99.90;;;;;;5031631;28;20170;-63
2023/09/27 05:41:57;;;;;;;0.97;0.97;;;9.40;99.90;;;;;;5030872;28;20208;-62
2023/09/27 05:44:23;;;;;;;1.33;0.60;;;9.40;99.90;;;;;;5030289;28;20189;-62
2023/09/27 05:46:48;;;;;;;0.43;0.43;;;9.50;99.90;;;;;;5030096;28;20272;-62
2023/09/27 05:49:15;;;;;;;2.73;1.13;;;9.50;99.90;;;;;;5029983;28;20245;-62
2023/09/27 05:51:41;;;;;;;0.73;0.73;;;9.60;99.90;;;;;;5030144;28;20174;-63
2023/09/27 05:54:07;;;;;;;0.40;0.40;;;9.60;99.90;;;;;;5030143;28;20183;-62
2023/09/27 05:56:37;;;;;;;1.00;0.70;;;9.60;99.90;;;;;;5029913;28;20216;-62
2023/09/27 05:59:08;;;;;;;3.17;1.70;;;9.50;99.90;;;;;;5029863;28;20205;-62
2023/09/27 06:01:35;;;;;;;0.60;0.60;;;9.70;99.90;;;;;;5030961;28;20215;-62
2023/09/27 06:04:02;;;;;;;1.67;1.33;;;9.80;99.90;;;;;;5031545;28;20600;-62
2023/09/27 06:06:29;;;;;;;0.70;0.70;;;9.80;99.90;;;;;;5030990;28;20469;-61
2023/09/27 06:08:54;;;;;;;0.75;0.75;;;9.80;99.90;;;;;;5031174;28;20645;-62
2023/09/27 06:11:20;;;;;;;0.77;0.77;;;9.90;99.90;;;;;;5031476;28;20237;-63
2023/09/27 06:13:46;;;;;;;1.17;0.83;;;10.00;99.90;;;;;;5031333;28;20417;-63
2023/09/27 06:16:13;;;;;;;0.73;0.57;;;10.10;99.90;;;;;;5031064;28;20171;-62
2023/09/27 06:18:39;;;;;;;0.70;0.70;;;10.10;99.90;;;;;;5031212;28;20210;-63
2023/09/27 06:21:05;;;;;;;0.97;0.97;;;10.20;99.90;;;;;;5031267;28;20678;-62
2023/09/27 06:23:30;;;;;;;0.93;0.63;;;10.30;99.90;;;;;;5031270;28;20670;-63
2023/09/27 06:25:56;;;;;;;0.93;0.70;;;10.30;99.90;;;;;;5030918;28;20168;-63
2023/09/27 06:28:22;;;;;;;0.70;0.70;;;10.30;99.90;;;;;;5031042;28;20183;-62
2023/09/27 06:30:48;;;;;;;0.40;0.40;;;10.30;99.90;;;;;;5031025;28;20667;-63
2023/09/27 06:33:14;;;;;;;0.93;0.93;;;10.40;99.90;;;;;;5031140;28;20267;-62
2023/09/27 06:35:40;;;;;;;1.93;1.57;;;10.40;99.90;;;;;;5030781;28;20175;-63
2023/09/27 06:38:05;;;;;;;0.88;0.88;;;10.40;99.90;;;;;;5030971;28;20240;-62
2023/09/27 06:40:31;;;;;;;1.20;1.10;;;10.40;99.90;;;;;;5030987;28;20226;-62
2023/09/27 06:42:57;;;;;;;0.50;0.50;;;10.50;99.90;;;;;;5030915;28;20167;-62
2023/09/27 06:45:23;;;;;;;1.80;1.07;;;10.80;99.90;;;;;;5031050;28;20419;-62
2023/09/27 06:47:49;;;;;;;0.70;0.70;;;11.50;99.90;;;;;;5030804;28;20190;-63
2023/09/27 06:50:19;;;;;;;0.90;0.90;;;12.20;99.90;;;;;;5030923;28;20484;-63
2023/09/27 06:52:46;;;;;;;1.57;1.47;;;12.80;99.90;;;;;;5030978;28;20163;-63
2023/09/27 06:55:13;;;;;;;1.17;1.10;;;13.70;99.90;;;;;;5030831;28;20410;-62
2023/09/27 06:57:44;;;;;;;0.90;0.90;;;14.90;99.90;;;;;;5030404;28;20461;-64
2023/09/27 07:00:12;;;;;;;0.70;0.70;;;16.40;98.50;;;;;;5030870;28;20402;-63
2023/09/27 07:02:41;;;;;;;1.17;0.83;;;17.80;96.60;;;;;;5034136;28;20457;-63
2023/09/27 07:05:08;;;;;;;0.90;0.90;;;19.10;95.40;;;;;;5034377;28;20406;-64
2023/09/27 07:07:34;;;;;;;2.90;0.80;;;20.40;92.60;;;;;;5033859;28;20445;-63
2023/09/27 07:10:00;;;;;;;2.17;1.20;;;21.80;88.00;;;;;;5034210;28;20401;-64
2023/09/27 07:12:26;;;;;;;1.27;1.10;;;23.30;79.80;;;;;;5034297;28;20182;-64
2023/09/27 07:14:51;;;;;;;1.13;0.90;;;24.80;75.90;;;;;;5034367;28;20210;-64
2023/09/27 07:17:17;;;;;;;1.50;1.40;;;26.30;69.60;;;;;;5033701;28;20834;-62
2023/09/27 07:19:43;;;;;;;1.47;1.10;;;27.70;60.50;;;;;;5034055;28;20175;-62
2023/09/27 07:22:10;;;;;;;1.60;1.10;;;28.90;58.00;;;;;;5033884;28;20194;-62
2023/09/27 07:24:36;;;;;;;1.50;1.20;;;29.70;53.90;;;;;;5033881;28;20182;-62
2023/09/27 07:27:02;;;;;;;0.80;0.80;;;30.00;50.50;;;;;;5033780;28;20412;-62
2023/09/27 07:29:28;;;;;;;1.47;1.37;;;29.70;50.40;;;;;;5034055;28;20179;-62
2023/09/27 07:31:54;;;;;;;2.47;1.30;;;29.50;50.20;;;;;;5033916;28;20402;-62
2023/09/27 07:34:20;;;;;;;1.80;0.80;;;29.50;49.90;;;;;;5034897;28;20251;-62
2023/09/27 07:36:45;;;;;;;1.50;1.40;;;29.40;49.60;;;;;;5033284;28;20186;-62
2023/09/27 07:39:13;;;;;;;1.83;1.50;;;29.20;48.60;;;;;;5033567;28;20413;-62
2023/09/27 07:41:38;;;;;;;1.10;1.00;;;29.40;49.40;;;;;;5033798;28;20614;-62
2023/09/27 07:44:09;;;;;;;1.23;0.90;;;30.10;48.30;;;;;;5033698;28;20401;-62
2023/09/27 07:46:35;;;;;;;1.07;1.03;;;31.10;46.80;;;;;;5033419;28;20596;-62
2023/09/27 07:49:01;;;;;;;1.10;1.10;;;32.30;45.70;;;;;;5033397;28;20441;-62
2023/09/27 07:51:27;;;;;;;1.40;1.13;;;33.30;44.30;;;;;;5033453;28;20405;-62
2023/09/27 07:53:54;;;;;;;1.87;1.43;;;34.20;42.90;;;;;;5033346;28;20428;-62
2023/09/27 07:56:26;;;;;;;1.23;1.03;;;34.80;42.20;;;;;;5032860;28;20248;-62
2023/09/27 07:58:53;;;;;;;1.83;1.10;;;35.40;40.90;;;;;;5033245;28;20426;-62
2023/09/27 08:01:22;;;;;;;2.40;1.13;;;35.90;39.90;;;;;;5033013;28;20446;-62
2023/09/27 08:03:49;;;;;;;3.20;1.33;;;36.20;37.70;;;;;;5033557;28;20402;-62
2023/09/27 08:06:16;;;;;;;1.27;1.17;;;36.50;36.80;;;;;;5032599;28;20832;-62
2023/09/27 08:08:42;;;;;;;1.27;1.17;;;36.70;37.20;;;;;;5068971;22;20490;-62
2023/09/27 08:11:11;;;;;;;1.43;1.30;;;37.00;35.80;;;;;;5093196;28;20498;-61
2023/09/27 08:13:37;;;;;;;2.60;1.40;;;37.20;36.20;;;;;;5093149;28;20398;-62
2023/09/27 08:16:06;;;;;;;1.20;1.10;;;37.50;35.50;;;;;;5092749;28;20490;-62
2023/09/27 08:18:33;;;;;;;1.63;1.30;;;37.70;34.90;;;;;;5093053;28;20927;-62
2023/09/27 08:21:01;;;;;;;1.40;1.30;;;37.80;35.60;;;;;;5092883;28;20455;-62
2023/09/27 08:23:27;;;;;;;2.00;1.73;;;38.00;35.90;;;;;;5092980;28;20987;-62
2023/09/27 08:25:53;;;;;;;1.53;1.40;;;38.10;34.70;;;;;;5092668;28;20494;-62
2023/09/27 08:28:21;;;;;;;1.60;1.50;;;38.20;34.90;;;;;;5092991;28;20197;-62
2023/09/27 08:30:47;;;;;;;1.70;1.53;;;38.40;35.10;;;;;;5092890;28;20409;-62
2023/09/27 08:33:13;;;;;;;1.80;1.13;;;38.60;34.40;;;;;;5092792;28;20465;-62
2023/09/27 08:35:39;;;;;;;2.53;1.50;;;38.70;34.20;;;;;;5092535;28;20453;-62
2023/09/27 08:38:04;;;;;;;1.90;1.20;;;38.50;33.50;;;;;;5092666;28;20173;-61
2023/09/27 08:40:30;;;;;;;1.57;1.37;;;38.50;34.30;;;;;;5092781;28;20176;-62
2023/09/27 08:42:58;;;;;;;3.67;1.60;;;38.60;32.90;;;;;;5092692;28;20634;-62
2023/09/27 08:45:24;;;;;;;1.43;1.33;;;38.70;33.80;;;;;;5092569;28;20255;-62
2023/09/27 08:47:51;;;;;;;1.80;1.50;;;38.80;33.70;;;;;;5092335;28;20391;-63
2023/09/27 08:50:18;;;;;;;1.73;1.27;;;39.00;33.20;;;;;;5092321;28;20841;-62
2023/09/27 08:52:49;;;;;;;1.87;1.77;;;39.10;33.90;;;;;;5092496;28;21025;-62
2023/09/27 08:55:16;;;;;;;1.40;1.20;;;39.10;33.10;;;;;;5092517;28;20407;-62
2023/09/27 08:57:49;;;;;;;1.20;1.10;;;38.90;33.20;;;;;;5092067;28;20419;-62
2023/09/27 09:00:21;;;;;;;2.90;1.90;;;39.00;33.40;;;;;;5092222;28;20445;-62
2023/09/27 09:02:58;;;;;;;1.47;1.37;;;39.20;33.40;;;;;;5092302;28;20765;-62
2023/09/27 09:05:26;;;;;;;1.60;1.50;;;39.30;33.20;;;;;;5092108;28;20406;-62
2023/09/27 09:07:52;;;;;;;1.87;1.77;;;39.50;33.20;;;;;;5091898;28;20495;-62
2023/09/27 09:10:18;;;;;;;1.33;0.80;;;39.60;33.50;;;;;;5091998;28;20461;-62
2023/09/27 09:12:45;;;;;;;3.23;2.20;;;39.80;32.80;;;;;;5092163;28;20904;-62
2023/09/27 09:15:40;;;;;;;2.10;1.60;;;39.90;32.70;;;;;;5092513;28;20548;-62
2023/09/27 09:18:10;;;;;;;2.13;1.70;;;40.00;33.70;;;;;;5081019;28;20422;-63
2023/09/27 09:20:51;;;;;;;2.30;1.13;;;39.90;33.40;;;;;;5092314;28;20782;-62
2023/09/27 09:23:33;;;;;;;2.80;1.77;;;39.90;29.90;;;;;;5091384;28;20414;-62
2023/09/27 09:26:00;;;;;;;1.30;1.20;;;39.80;32.40;;;;;;5091800;28;20788;-62
2023/09/27 09:28:26;;;;;;;2.73;1.53;;;39.60;31.30;;;;;;5091947;28;20460;-62
2023/09/27 09:30:54;;;;;;;5.90;2.50;;;39.00;30.00;;;;;;5091942;28;20411;-62
2023/09/27 09:33:20;;;;;;;1.47;1.17;;;37.80;32.70;;;;;;5092237;28;20214;-62
2023/09/27 09:35:46;;;;;;;2.27;1.60;;;37.20;30.30;;;;;;5091510;28;20402;-62
2023/09/27 09:38:23;;;;;;;2.13;1.90;;;36.30;31.30;;;;;;5091938;28;20419;-62
2023/09/27 09:40:53;;;;;;;2.20;1.70;;;35.70;33.40;;;;;;5091885;28;20963;-62
2023/09/27 09:43:36;;;;;;;1.37;1.10;;;35.50;31.40;;;;;;5091641;28;20411;-61
2023/09/27 09:46:06;;;;;;;1.40;1.30;;;33.80;33.70;;;;;;5091492;28;20407;-62
2023/09/27 09:48:35;;;;;;;2.20;1.80;;;33.90;33.80;;;;;;5091727;28;20437;-62
2023/09/27 09:51:06;;;;;;;1.03;0.93;;;33.70;33.90;;;;;;5091849;28;20434;-61
2023/09/27 09:53:36;;;;;;;3.00;1.63;;;33.80;32.30;;;;;;5091762;28;20797;-61
2023/09/27 09:56:03;;;;;;;2.60;1.30;;;33.00;32.50;;;;;;5091329;28;20406;-61
2023/09/27 09:58:44;;;;;;;1.13;1.03;;;31.50;34.50;;;;;;5091508;28;20438;-61
2023/09/27 10:01:21;;;;;;;1.57;1.40;;;31.10;35.00;;;;;;5091759;28;20456;-61
2023/09/27 10:03:50;;;;;;;2.03;1.10;;;30.70;35.30;;;;;;5091626;28;20418;-62
2023/09/27 10:06:19;;;;;;;1.53;1.43;;;30.20;37.60;;;;;;5079604;28;20408;-61
2023/09/27 10:08:47;;;;;;;1.33;1.20;;;30.20;37.10;;;;;;5070051;28;20560;-61
2023/09/27 10:11:14;;;;;;;2.30;1.50;;;30.20;37.50;;;;;;5070945;28;20474;-60
2023/09/27 10:13:41;;;;;;;1.33;1.13;;;30.20;36.10;;;;;;5069691;28;20835;-61
2023/09/27 10:16:08;;;;;;;3.30;1.37;;;29.70;36.30;;;;;;5070924;28;20495;-61
2023/09/27 10:18:38;;;;;;;1.43;1.13;;;29.80;35.80;;;;;;5069708;28;20432;-61
2023/09/27 10:21:09;;;;;;;1.23;1.13;;;30.00;35.70;;;;;;5071027;28;20828;-61
2023/09/27 10:23:48;;;;;;;2.10;1.10;;;29.60;35.90;;;;;;5071140;28;20783;-61
2023/09/27 10:26:19;;;;;;;1.73;1.00;;;29.70;36.80;;;;;;5071013;28;20491;-61
2023/09/27 10:29:18;;;;;;;2.13;1.30;;;29.60;41.00;;;;;;5071090;28;20430;-61
2023/09/27 10:31:56;;;;;;;2.27;1.33;;;29.10;37.30;;;;;;5070678;28;20412;-61
2023/09/27 10:34:30;;;;;;;2.03;1.10;;;29.10;38.10;;;;;;5070943;28;20434;-61
2023/09/27 10:37:00;;;;;;;1.20;0.90;;;29.10;35.70;;;;;;5073142;28;20411;-61
2023/09/27 10:39:26;;;;;;;1.43;1.17;;;28.30;36.40;;;;;;5074641;28;20465;-61
2023/09/27 10:41:53;;;;;;;1.23;1.13;;;27.90;39.60;;;;;;5074804;28;20443;-61
2023/09/27 10:44:45;;;;;;;1.40;1.30;;;27.70;43.10;;;;;;5074508;28;20415;-61
2023/09/27 10:47:13;;;;;;;2.17;1.80;;;27.60;38.70;;;;;;5070205;28;20450;-61
2023/09/27 10:49:40;;;;;;;1.83;1.27;;;26.90;38.30;;;;;;5074746;28;20514;-61
2023/09/27 10:52:18;;;;;;;1.90;1.73;;;26.50;41.20;;;;;;5074027;28;20419;-61
2023/09/27 10:54:45;;;;;;;4.07;0.93;;;26.40;40.20;;;;;;5074486;28;20382;-60
2023/09/27 10:57:12;;;;;;;1.63;1.40;;;26.40;39.60;;;;;;5073788;28;20450;-61
2023/09/27 10:59:38;;;;;;;3.97;1.67;;;26.40;48.60;;;;;;5074399;28;20454;-61
2023/09/27 11:02:04;;;;;;;3.07;1.57;;;26.30;45.40;;;;;;5074234;28;20434;-60
2023/09/27 11:04:30;;;;;;;1.47;0.90;;;25.90;40.60;;;;;;5074314;28;20818;-61
2023/09/27 11:06:56;;;;;;;1.03;0.80;;;25.80;46.00;;;;;;5073878;28;20219;-60
2023/09/27 11:09:23;;;;;;;1.30;1.20;;;25.40;41.50;;;;;;5073728;28;20443;-61
2023/09/27 11:11:57;;;;;;;3.27;1.87;;;25.20;49.20;;;;;;5073596;28;20178;-61
2023/09/27 11:14:25;;;;;;;1.20;1.13;;;25.10;44.20;;;;;;5073775;28;20390;-61
2023/09/27 11:16:51;;;;;;;1.20;0.90;;;25.00;49.10;;;;;;5073723;28;20758;-61
2023/09/27 11:19:27;;;;;;;1.20;1.10;;;25.00;49.70;;;;;;5073979;28;20431;-61
2023/09/27 11:21:53;;;;;;;2.83;1.27;;;25.10;49.10;;;;;;5074083;28;20201;-61
2023/09/27 11:24:18;;;;;;;1.43;1.20;;;25.00;49.50;;;;;;5073922;28;20386;-61
2023/09/27 11:26:44;;;;;;;3.50;1.27;;;25.00;44.00;;;;;;5073604;28;20170;-60
2023/09/27 11:29:09;;;;;;;3.03;1.60;;;25.20;47.60;;;;;;5073998;28;20215;-61
2023/09/27 11:31:37;;;;;;;1.80;1.40;;;25.30;43.50;;;;;;5073914;28;20264;-61
2023/09/27 11:34:20;;;;;;;1.20;1.03;;;25.40;46.40;;;;;;5073843;28;20182;-60
2023/09/27 11:36:54;;;;;;;1.27;1.10;;;25.30;50.60;;;;;;5073350;28;20390;-60
2023/09/27 11:39:26;;;;;;;1.97;1.60;;;25.20;46.40;;;;;;5073850;28;20405;-61
2023/09/27 11:41:59;;;;;;;2.53;1.27;;;25.10;48.60;;;;;;5073688;28;20422;-60
2023/09/27 11:44:27;;;;;;;0.97;0.87;;;24.90;51.10;;;;;;5073580;28;20400;-61
2023/09/27 11:47:09;;;;;;;1.60;1.50;;;24.70;44.00;;;;;;5072881;28;20378;-60
2023/09/27 11:49:35;;;;;;;3.90;1.87;;;24.60;45.40;;;;;;5073550;28;20937;-60
2023/09/27 11:52:02;;;;;;;1.03;1.03;;;24.60;47.00;;;;;;5073686;28;20878;-61
2023/09/27 11:54:28;;;;;;;2.17;1.97;;;24.60;52.50;;;;;;5073542;28;20407;-61
2023/09/27 11:56:54;;;;;;;2.73;1.27;;;24.60;53.90;;;;;;5073377;28;20466;-61
2023/09/27 11:59:20;;;;;;;1.60;1.50;;;24.70;49.00;;;;;;5073268;28;20432;-61
2023/09/27 12:01:46;;;;;;;1.13;1.03;;;24.70;53.60;;;;;;5073136;28;20287;-61
2023/09/27 12:04:12;;;;;;;1.57;0.87;;;24.60;53.20;;;;;;5073263;28;20387;-61
2023/09/27 12:06:37;;;;;;;2.37;1.50;;;24.40;55.00;;;;;;5072901;28;20180;-61
2023/09/27 12:09:05;;;;;;;1.77;1.47;;;24.30;54.80;;;;;;5073087;28;20451;-61
2023/09/27 12:11:31;;;;;;;1.43;1.10;;;24.20;56.20;;;;;;5073130;28;20276;-60
2023/09/27 12:13:57;;;;;;;2.53;1.03;;;24.10;49.90;;;;;;5073193;28;20393;-60
2023/09/27 12:16:23;;;;;;;1.93;1.00;;;24.10;44.80;;;;;;5071563;28;20419;-60
2023/09/27 12:18:49;;;;;;;3.13;1.60;;;24.20;48.80;;;;;;5072380;28;20450;-61
2023/09/27 12:21:15;;;;;;;1.67;0.90;;;24.30;47.90;;;;;;5072323;28;20418;-60
2023/09/27 12:23:41;;;;;;;1.77;1.07;;;24.30;48.90;;;;;;5072956;28;20184;-60
2023/09/27 12:26:09;;;;;;;3.20;1.60;;;24.30;53.70;;;;;;5072211;28;20227;-61
2023/09/27 12:28:36;;;;;;;2.20;2.00;;;24.20;50.50;;;;;;5072617;28;20501;-61
2023/09/27 12:31:06;;;;;;;2.30;1.83;;;24.30;48.70;;;;;;5072629;28;20481;-61
2023/09/27 12:33:33;;;;;;;1.70;1.60;;;24.20;54.20;;;;;;5072489;28;20398;-61
2023/09/27 12:35:59;;;;;;;1.07;0.93;;;24.00;54.50;;;;;;5072240;28;20414;-61
2023/09/27 12:38:26;;;;;;;3.00;1.97;;;24.10;52.40;;;;;;5072621;28;20919;-61
2023/09/27 12:40:52;;;;;;;1.43;1.10;;;24.00;48.60;;;;;;5072357;28;20209;-61
2023/09/27 12:43:17;;;;;;;1.97;1.23;;;24.00;52.30;;;;;;5072082;28;20415;-61
2023/09/27 12:45:43;;;;;;;4.40;1.40;;;23.90;53.80;;;;;;5072357;28;20397;-60
2023/09/27 12:48:09;;;;;;;2.00;1.47;;;23.80;51.30;;;;;;5072293;28;20165;-61